Time;durP1;ratioP1;P1;durP2;ratioP2;P2;SDS_P1;SDS_P2;PMS_P1;PMS_P2;Temp;Humidity;BMP_temperature;BMP_pressure;BME280_temperature;BME280_humidity;BME280_pressure;Samples;Min_cycle;Max_cycle;Signal;HPM_P1;HPM_P2
2023/05/06 00:01:13;;;;;;;1.90;1.20;;;;;;;;;;5108672;28;20156;-62
2023/05/06 00:03:39;;;;;;;1.67;1.20;;;;;;;;;;5107328;28;20027;-62
2023/05/06 00:06:08;;;;;;;2.03;1.10;;;;;;;;;;5108990;28;20031;-62
2023/05/06 00:08:34;;;;;;;1.38;0.93;;;;;;;;;;5105770;28;20016;-62
2023/05/06 00:11:00;;;;;;;2.45;1.08;;;;;;;;;;5108596;28;20399;-62
2023/05/06 00:13:26;;;;;;;2.25;1.17;;;;;;;;;;5106313;28;20028;-62
2023/05/06 00:15:52;;;;;;;2.25;1.30;;;;;;;;;;5105934;28;20035;-62
2023/05/06 00:18:21;;;;;;;2.97;1.30;;;;;;;;;;5108581;28;20380;-62
2023/05/06 00:20:47;;;;;;;1.38;0.90;;;;;;;;;;5109990;28;20043;-62
2023/05/06 00:23:13;;;;;;;3.88;1.35;;;;;;;;;;5110033;28;20020;-62
2023/05/06 00:25:39;;;;;;;1.27;0.70;;;;;;;;;;5110556;28;20497;-62
2023/05/06 00:28:05;;;;;;;1.90;1.10;;;;;;;;;;5110430;28;20016;-61
2023/05/06 00:30:31;;;;;;;1.73;1.02;;;;;;;;;;5109886;28;20063;-62
2023/05/06 00:32:57;;;;;;;2.05;1.10;;;;;;;;;;5109708;28;20102;-62
2023/05/06 00:35:22;;;;;;;1.65;0.93;;;;;;;;;;5112277;27;20099;-62
2023/05/06 00:38:05;;;;;;;1.25;0.68;;;;;;;;;;5109313;28;20081;-62
2023/05/06 00:40:31;;;;;;;1.98;0.95;;;;;;;;;;5109467;28;20476;-62
2023/05/06 00:42:57;;;;;;;2.28;1.23;;;;;;;;;;5109680;28;20102;-62
2023/05/06 00:45:24;;;;;;;1.40;0.90;;;;;;;;;;5109490;28;20035;-62
2023/05/06 00:47:51;;;;;;;1.38;0.90;;;;;;;;;;5110283;28;20020;-62
2023/05/06 00:50:17;;;;;;;1.75;1.05;;;;;;;;;;5109523;28;20058;-62
2023/05/06 00:52:43;;;;;;;1.55;0.93;;;;;;;;;;5109134;28;20038;-62
2023/05/06 00:55:09;;;;;;;2.53;1.10;;;;;;;;;;5110520;28;20024;-62
2023/05/06 00:57:35;;;;;;;2.47;1.00;;;;;;;;;;5110066;28;20092;-62
2023/05/06 01:00:01;;;;;;;1.83;0.98;;;;;;;;;;5109395;28;20024;-62
2023/05/06 01:02:27;;;;;;;1.65;0.93;;;;;;;;;;5108779;28;20027;-62
2023/05/06 01:04:54;;;;;;;1.52;0.98;;;;;;;;;;5111853;28;20512;-61
2023/05/06 01:07:20;;;;;;;1.60;0.77;;;;;;;;;;5108831;28;20039;-61
2023/05/06 01:09:53;;;;;;;2.67;1.25;;;;;;;;;;5110336;28;20340;-62
2023/05/06 01:12:27;;;;;;;1.45;0.85;;;;;;;;;;5109646;28;20127;-62
2023/05/06 01:15:13;;;;;;;2.08;1.08;;;;;;;;;;5108400;28;20059;-62
2023/05/06 01:17:41;;;;;;;1.52;1.10;;;;;;;;;;5109885;28;20042;-62
2023/05/06 01:20:10;;;;;;;1.23;0.80;;;;;;;;;;5109815;28;20096;-62
2023/05/06 01:22:37;;;;;;;1.88;1.05;;;;;;;;;;5109910;28;20468;-62
2023/05/06 01:25:03;;;;;;;1.83;1.10;;;;;;;;;;5108495;28;20047;-61
2023/05/06 01:27:29;;;;;;;1.20;0.80;;;;;;;;;;5108781;28;20066;-61
2023/05/06 01:29:55;;;;;;;2.45;0.88;;;;;;;;;;5108642;28;20074;-62
2023/05/06 01:32:27;;;;;;;1.60;1.10;;;;;;;;;;5108819;28;20442;-62
2023/05/06 01:34:55;;;;;;;1.75;1.00;;;;;;;;;;5110374;28;20026;-62
2023/05/06 01:37:25;;;;;;;2.53;1.10;;;;;;;;;;5108347;28;20035;-62
2023/05/06 01:39:55;;;;;;;1.63;1.10;;;;;;;;;;5108649;28;20020;-62
2023/05/06 01:42:21;;;;;;;2.50;1.30;;;;;;;;;;5108703;28;20464;-62
2023/05/06 01:44:48;;;;;;;2.78;1.02;;;;;;;;;;5108420;28;20023;-61
2023/05/06 01:47:15;;;;;;;1.75;0.73;;;;;;;;;;5108335;28;20440;-62
2023/05/06 01:49:41;;;;;;;1.67;1.02;;;;;;;;;;5108611;28;20031;-61
2023/05/06 01:52:06;;;;;;;1.55;0.80;;;;;;;;;;5108848;28;20134;-61
2023/05/06 01:54:32;;;;;;;1.80;1.00;;;;;;;;;;5108731;28;20114;-62
2023/05/06 01:56:59;;;;;;;2.00;1.15;;;;;;;;;;5107206;28;20548;-62
2023/05/06 01:59:25;;;;;;;1.23;0.90;;;;;;;;;;5109228;28;20510;-62
2023/05/06 02:01:51;;;;;;;2.03;1.00;;;;;;;;;;5109071;28;20027;-62
2023/05/06 02:04:17;;;;;;;2.47;0.90;;;;;;;;;;5109442;28;20019;-61
2023/05/06 02:06:43;;;;;;;1.80;0.93;;;;;;;;;;5109870;28;20024;-62
2023/05/06 02:09:09;;;;;;;1.30;0.85;;;;;;;;;;5108836;28;20387;-62
2023/05/06 02:11:35;;;;;;;1.42;0.70;;;;;;;;;;5109895;28;20039;-62
2023/05/06 02:14:01;;;;;;;1.75;1.08;;;;;;;;;;5107533;28;20036;-60
2023/05/06 02:16:27;;;;;;;1.63;1.00;;;;;;;;;;5108342;28;20129;-60
2023/05/06 02:18:54;;;;;;;2.03;0.90;;;;;;;;;;5108293;28;20457;-61
2023/05/06 02:21:20;;;;;;;1.33;0.70;;;;;;;;;;5107930;28;20024;-61
2023/05/06 02:23:46;;;;;;;1.25;0.80;;;;;;;;;;5107617;28;20068;-61
2023/05/06 02:26:12;;;;;;;1.60;1.00;;;;;;;;;;5108037;28;20031;-61
2023/05/06 02:28:38;;;;;;;1.83;0.88;;;;;;;;;;5108333;28;20111;-61
2023/05/06 02:31:04;;;;;;;1.05;0.82;;;;;;;;;;5107508;28;20039;-61
2023/05/06 02:33:30;;;;;;;1.65;0.90;;;;;;;;;;5108453;28;20035;-61
2023/05/06 02:35:56;;;;;;;2.35;0.93;;;;;;;;;;5109691;28;20081;-61
2023/05/06 02:38:22;;;;;;;1.75;1.15;;;;;;;;;;5107342;28;20031;-61
2023/05/06 02:40:48;;;;;;;1.48;0.88;;;;;;;;;;5106447;28;20020;-61
2023/05/06 02:43:14;;;;;;;2.00;1.20;;;;;;;;;;5110468;28;20387;-61
2023/05/06 02:45:40;;;;;;;1.48;0.90;;;;;;;;;;5106463;28;20518;-61
2023/05/06 02:48:06;;;;;;;1.33;0.90;;;;;;;;;;5107637;28;21401;-61
2023/05/06 02:50:35;;;;;;;1.73;1.30;;;;;;;;;;5110176;28;20420;-61
2023/05/06 02:53:01;;;;;;;1.60;0.82;;;;;;;;;;5107011;27;20027;-61
2023/05/06 02:55:27;;;;;;;1.92;1.13;;;;;;;;;;5108054;28;20120;-61
2023/05/06 02:57:53;;;;;;;2.08;0.93;;;;;;;;;;5108964;28;20067;-61
2023/05/06 03:00:19;;;;;;;1.40;0.90;;;;;;;;;;5107128;28;20529;-61
2023/05/06 03:02:45;;;;;;;1.33;0.90;;;;;;;;;;5107698;28;20023;-61
2023/05/06 03:05:11;;;;;;;1.42;1.20;;;;;;;;;;5109095;28;20072;-61
2023/05/06 03:07:37;;;;;;;1.75;0.98;;;;;;;;;;5107210;28;20034;-61
2023/05/06 03:10:03;;;;;;;1.80;0.80;;;;;;;;;;5108620;28;20024;-62
2023/05/06 03:12:29;;;;;;;2.08;0.90;;;;;;;;;;5109702;28;20035;-61
2023/05/06 03:14:55;;;;;;;1.80;1.20;;;;;;;;;;5106682;28;20024;-61
2023/05/06 03:17:21;;;;;;;1.63;1.23;;;;;;;;;;5107345;28;20034;-61
2023/05/06 03:19:49;;;;;;;1.45;0.90;;;;;;;;;;5108493;28;20407;-61
2023/05/06 03:22:15;;;;;;;2.25;1.17;;;;;;;;;;5106469;28;20406;-61
2023/05/06 03:24:41;;;;;;;1.30;0.95;;;;;;;;;;5108024;28;20099;-61
2023/05/06 03:27:07;;;;;;;1.50;0.80;;;;;;;;;;5107838;28;20102;-62
2023/05/06 03:29:33;;;;;;;1.40;1.00;;;;;;;;;;5105483;28;20030;-61
2023/05/06 03:32:02;;;;;;;1.35;0.75;;;;;;;;;;5108298;28;20045;-61
2023/05/06 03:34:29;;;;;;;1.38;1.00;;;;;;;;;;5107766;28;20077;-61
2023/05/06 03:36:56;;;;;;;1.15;0.80;;;;;;;;;;5106588;28;20040;-61
2023/05/06 03:39:22;;;;;;;2.10;0.98;;;;;;;;;;5109022;28;20400;-61
2023/05/06 03:41:48;;;;;;;1.65;0.95;;;;;;;;;;5107453;28;20475;-61
2023/05/06 03:44:14;;;;;;;1.77;0.93;;;;;;;;;;5109667;28;20111;-61
2023/05/06 03:46:40;;;;;;;1.10;0.80;;;;;;;;;;5107108;28;20019;-61
2023/05/06 03:49:06;;;;;;;1.60;0.70;;;;;;;;;;5106038;28;20027;-61
2023/05/06 03:51:32;;;;;;;1.55;0.85;;;;;;;;;;5107221;28;20097;-61
2023/05/06 03:53:59;;;;;;;1.65;0.65;;;;;;;;;;5111012;27;20019;-61
2023/05/06 03:56:25;;;;;;;2.20;0.80;;;;;;;;;;5111150;28;20027;-61
2023/05/06 03:58:52;;;;;;;1.10;0.95;;;;;;;;;;5112269;28;20032;-61
2023/05/06 04:01:19;;;;;;;0.82;0.55;;;;;;;;;;5112592;28;20121;-61
2023/05/06 04:03:45;;;;;;;2.08;1.08;;;;;;;;;;5110534;28;20420;-61
2023/05/06 04:06:11;;;;;;;1.50;0.82;;;;;;;;;;5111067;27;20085;-61
2023/05/06 04:08:37;;;;;;;1.15;0.73;;;;;;;;;;5111446;28;20028;-61
2023/05/06 04:11:04;;;;;;;1.80;0.90;;;;;;;;;;5111984;28;20062;-61
2023/05/06 04:13:30;;;;;;;1.00;0.80;;;;;;;;;;5112551;28;20031;-61
2023/05/06 04:15:56;;;;;;;1.58;1.00;;;;;;;;;;5110867;28;20036;-61
2023/05/06 04:18:22;;;;;;;1.10;0.80;;;;;;;;;;5111182;28;20042;-61
2023/05/06 04:20:48;;;;;;;1.98;0.93;;;;;;;;;;5109797;28;20491;-61
2023/05/06 04:23:14;;;;;;;1.42;1.00;;;;;;;;;;5109336;28;20039;-61
2023/05/06 04:25:47;;;;;;;2.15;0.98;;;;;;;;;;5110364;28;20161;-61
2023/05/06 04:28:13;;;;;;;1.13;0.90;;;;;;;;;;5109790;28;20063;-61
2023/05/06 04:30:41;;;;;;;1.52;0.80;;;;;;;;;;5109356;28;20043;-61
2023/05/06 04:33:07;;;;;;;1.35;0.88;;;;;;;;;;5110373;28;20460;-61
2023/05/06 04:35:33;;;;;;;1.10;0.80;;;;;;;;;;5111360;28;20050;-61
2023/05/06 04:37:59;;;;;;;1.00;0.77;;;;;;;;;;5108783;28;20499;-61
2023/05/06 04:40:27;;;;;;;1.60;0.88;;;;;;;;;;5110510;28;20085;-61
2023/05/06 04:42:53;;;;;;;1.48;0.80;;;;;;;;;;5110450;28;20507;-61
2023/05/06 04:45:19;;;;;;;1.55;1.00;;;;;;;;;;5109976;28;20042;-61
2023/05/06 04:47:45;;;;;;;2.58;1.00;;;;;;;;;;5109327;28;20084;-61
2023/05/06 04:50:11;;;;;;;1.20;0.90;;;;;;;;;;5110105;28;20032;-61
2023/05/06 04:52:37;;;;;;;1.67;1.00;;;;;;;;;;5110186;28;20032;-61
2023/05/06 04:55:03;;;;;;;1.35;0.90;;;;;;;;;;5109817;28;20422;-61
2023/05/06 04:57:30;;;;;;;1.27;0.80;;;;;;;;;;5110060;28;20372;-61
2023/05/06 04:59:56;;;;;;;1.58;0.95;;;;;;;;;;5110015;28;20522;-61
2023/05/06 05:02:22;;;;;;;1.83;0.82;;;;;;;;;;5109973;28;20561;-61
2023/05/06 05:04:49;;;;;;;1.17;0.80;;;;;;;;;;5109437;28;20483;-61
2023/05/06 05:07:15;;;;;;;2.20;0.98;;;;;;;;;;5111156;28;20039;-61
2023/05/06 05:09:41;;;;;;;2.95;0.90;;;;;;;;;;5109175;28;20032;-61
2023/05/06 05:12:07;;;;;;;1.40;0.70;;;;;;;;;;5111313;28;20089;-61
2023/05/06 05:14:33;;;;;;;1.40;0.77;;;;;;;;;;5110095;28;20104;-61
2023/05/06 05:16:59;;;;;;;1.67;1.00;;;;;;;;;;5108450;28;20028;-61
2023/05/06 05:19:25;;;;;;;3.53;1.00;;;;;;;;;;5118116;27;20041;-61
2023/05/06 05:21:51;;;;;;;1.80;0.88;;;;;;;;;;5128246;27;20111;-61
2023/05/06 05:24:17;;;;;;;1.73;1.00;;;;;;;;;;5125665;27;20023;-61
2023/05/06 05:26:43;;;;;;;1.10;0.80;;;;;;;;;;5124546;27;20475;-61
2023/05/06 05:29:09;;;;;;;1.63;0.90;;;;;;;;;;5125970;27;20276;-61
2023/05/06 05:31:35;;;;;;;1.27;0.70;;;;;;;;;;5123350;27;20458;-61
2023/05/06 05:34:01;;;;;;;1.42;0.85;;;;;;;;;;5120641;27;20040;-61
2023/05/06 05:36:27;;;;;;;1.05;0.70;;;;;;;;;;5121386;27;20027;-61
2023/05/06 05:38:53;;;;;;;1.20;0.88;;;;;;;;;;5116189;27;20031;-61
2023/05/06 05:41:19;;;;;;;1.58;0.82;;;;;;;;;;5112584;28;20069;-62
2023/05/06 05:43:45;;;;;;;1.20;0.70;;;;;;;;;;5110138;28;20027;-61
2023/05/06 05:46:11;;;;;;;1.95;0.90;;;;;;;;;;5108781;28;20487;-61
2023/05/06 05:48:38;;;;;;;1.33;0.60;;;;;;;;;;5109424;28;20060;-61
2023/05/06 05:51:05;;;;;;;1.60;0.80;;;;;;;;;;5108818;28;20024;-61
2023/05/06 05:53:31;;;;;;;1.77;0.80;;;;;;;;;;5108770;28;20032;-62
2023/05/06 05:55:56;;;;;;;1.08;0.80;;;;;;;;;;5108545;28;20076;-61
2023/05/06 05:58:22;;;;;;;1.88;0.98;;;;;;;;;;5108937;28;20110;-61
2023/05/06 06:00:48;;;;;;;0.93;0.70;;;;;;;;;;5109645;28;20081;-61
2023/05/06 06:03:14;;;;;;;1.58;0.80;;;;;;;;;;5110719;27;20451;-61
2023/05/06 06:05:40;;;;;;;1.60;0.75;;;;;;;;;;5110423;27;20019;-61
2023/05/06 06:08:07;;;;;;;2.08;0.88;;;;;;;;;;5110511;28;20094;-61
2023/05/06 06:10:33;;;;;;;1.67;0.80;;;;;;;;;;5110345;28;20023;-61
2023/05/06 06:12:59;;;;;;;2.30;1.00;;;;;;;;;;5109252;28;20041;-61
2023/05/06 06:15:25;;;;;;;0.88;0.70;;;;;;;;;;5106979;28;20102;-61
2023/05/06 06:17:53;;;;;;;1.15;0.70;;;;;;;;;;5107086;28;20475;-61
2023/05/06 06:20:19;;;;;;;1.83;0.70;;;;;;;;;;5108637;28;20044;-61
2023/05/06 06:22:45;;;;;;;1.15;0.60;;;;;;;;;;5108025;28;20114;-61
2023/05/06 06:25:11;;;;;;;1.90;0.80;;;;;;;;;;5107092;28;20103;-61
2023/05/06 06:27:37;;;;;;;1.65;1.05;;;;;;;;;;5108857;28;20032;-61
2023/05/06 06:30:04;;;;;;;0.98;0.70;;;;;;;;;;5108568;28;20095;-61
2023/05/06 06:32:30;;;;;;;1.40;0.73;;;;;;;;;;5107958;28;20440;-61
2023/05/06 06:34:56;;;;;;;1.42;0.90;;;;;;;;;;5108745;28;20023;-60
2023/05/06 06:37:22;;;;;;;1.20;0.63;;;;;;;;;;5109989;28;20050;-60
2023/05/06 06:39:48;;;;;;;2.08;0.90;;;;;;;;;;5107913;28;20391;-61
2023/05/06 06:42:14;;;;;;;1.33;0.70;;;;;;;;;;5107706;28;20106;-61
2023/05/06 06:44:40;;;;;;;1.83;0.60;;;;;;;;;;5107856;28;20020;-61
2023/05/06 06:47:06;;;;;;;1.30;0.90;;;;;;;;;;5107243;28;20054;-61
2023/05/06 06:49:32;;;;;;;1.23;0.70;;;;;;;;;;5107872;28;20084;-61
2023/05/06 06:51:58;;;;;;;1.27;0.93;;;;;;;;;;5108005;28;20027;-61
2023/05/06 06:54:24;;;;;;;1.00;0.63;;;;;;;;;;5107723;28;20031;-61
2023/05/06 06:56:54;;;;;;;1.30;0.82;;;;;;;;;;5107494;28;20103;-61
2023/05/06 06:59:20;;;;;;;1.50;0.70;;;;;;;;;;5108095;28;20407;-61
2023/05/06 07:01:46;;;;;;;1.70;0.80;;;;;;;;;;5107565;28;20044;-62
2023/05/06 07:04:12;;;;;;;2.10;1.02;;;;;;;;;;5108144;28;20455;-61
2023/05/06 07:06:38;;;;;;;2.63;0.77;;;;;;;;;;5109713;28;20126;-62
2023/05/06 07:09:04;;;;;;;2.97;0.90;;;;;;;;;;5108086;27;20024;-61
2023/05/06 07:11:30;;;;;;;5.50;0.82;;;;;;;;;;5108536;28;20028;-61
2023/05/06 07:13:56;;;;;;;1.75;0.93;;;;;;;;;;5107852;28;20144;-61
2023/05/06 07:16:22;;;;;;;1.30;0.82;;;;;;;;;;5107652;28;20028;-61
2023/05/06 07:18:49;;;;;;;5.97;0.90;;;;;;;;;;5106991;28;20032;-61
2023/05/06 07:21:15;;;;;;;8.48;1.05;;;;;;;;;;5110406;27;20032;-61
2023/05/06 07:23:41;;;;;;;5.80;0.88;;;;;;;;;;5107522;28;20035;-63
2023/05/06 07:26:07;;;;;;;6.07;1.10;;;;;;;;;;5107548;28;20051;-62
2023/05/06 07:28:33;;;;;;;5.60;1.17;;;;;;;;;;5107036;28;20099;-60
2023/05/06 07:30:59;;;;;;;9.43;1.27;;;;;;;;;;5106731;28;20487;-62
2023/05/06 07:33:25;;;;;;;10.40;1.20;;;;;;;;;;5107071;28;20023;-59
2023/05/06 07:35:53;;;;;;;3.45;1.10;;;;;;;;;;5109011;28;20062;-62
2023/05/06 07:38:21;;;;;;;2.92;0.90;;;;;;;;;;5107747;28;20114;-59
2023/05/06 07:40:47;;;;;;;4.50;1.10;;;;;;;;;;5106706;28;20106;-59
2023/05/06 07:43:13;;;;;;;2.83;1.02;;;;;;;;;;5107625;28;20019;-59
2023/05/06 07:45:39;;;;;;;3.95;0.80;;;;;;;;;;5107238;28;20084;-62
2023/05/06 07:48:05;;;;;;;4.00;0.90;;;;;;;;;;5107121;28;20016;-60
2023/05/06 07:50:31;;;;;;;8.30;1.10;;;;;;;;;;5106889;28;20027;-62
2023/05/06 07:52:58;;;;;;;4.60;1.10;;;;;;;;;;5106262;28;20052;-60
2023/05/06 07:55:24;;;;;;;3.20;0.88;;;;;;;;;;5107291;28;20084;-60
2023/05/06 07:57:51;;;;;;;6.93;1.17;;;;;;;;;;5106406;28;20119;-60
2023/05/06 08:00:17;;;;;;;7.72;1.15;;;;;;;;;;5108278;28;20053;-60
2023/05/06 08:02:43;;;;;;;4.07;1.40;;;;;;;;;;5105854;28;20131;-59
2023/05/06 08:05:12;;;;;;;5.72;1.30;;;;;;;;;;5110325;28;20058;-60
2023/05/06 08:07:39;;;;;;;4.60;1.40;;;;;;;;;;5115946;28;20023;-60
2023/05/06 08:10:06;;;;;;;6.00;1.67;;;;;;;;;;5105832;28;20035;-59
2023/05/06 08:12:32;;;;;;;7.18;1.40;;;;;;;;;;5110648;28;20023;-60
2023/05/06 08:14:58;;;;;;;3.70;1.35;;;;;;;;;;5109855;28;20031;-59
2023/05/06 08:17:24;;;;;;;4.57;1.70;;;;;;;;;;5109384;28;20019;-59
2023/05/06 08:19:50;;;;;;;8.05;1.52;;;;;;;;;;5111002;28;20026;-60
2023/05/06 08:22:16;;;;;;;5.05;1.42;;;;;;;;;;5108747;28;20019;-60
2023/05/06 08:24:42;;;;;;;3.35;1.40;;;;;;;;;;5108318;28;20030;-60
2023/05/06 08:27:08;;;;;;;7.43;1.63;;;;;;;;;;5108766;28;20027;-59
2023/05/06 08:29:34;;;;;;;4.05;1.58;;;;;;;;;;5109288;28;20020;-60
2023/05/06 08:32:00;;;;;;;5.25;1.77;;;;;;;;;;5109207;28;20015;-59
2023/05/06 08:34:26;;;;;;;5.75;1.73;;;;;;;;;;5109386;28;20096;-60
2023/05/06 08:36:52;;;;;;;8.38;1.90;;;;;;;;;;5108770;28;20525;-60
2023/05/06 08:39:18;;;;;;;6.38;1.80;;;;;;;;;;5110911;28;20108;-60
2023/05/06 08:41:48;;;;;;;4.38;1.92;;;;;;;;;;5113500;28;20024;-60
2023/05/06 08:44:15;;;;;;;7.35;1.70;;;;;;;;;;5114147;28;20498;-59
2023/05/06 08:46:41;;;;;;;5.32;1.58;;;;;;;;;;5113475;28;20076;-60
2023/05/06 08:49:07;;;;;;;4.43;1.48;;;;;;;;;;5112966;28;20020;-60
2023/05/06 08:51:33;;;;;;;6.15;1.75;;;;;;;;;;5113688;27;20027;-60
2023/05/06 08:54:01;;;;;;;4.82;1.40;;;;;;;;;;5113292;27;20032;-59
2023/05/06 08:56:29;;;;;;;4.25;1.20;;;;;;;;;;5112574;28;20026;-60
2023/05/06 08:58:57;;;;;;;6.00;1.30;;;;;;;;;;5112518;28;20035;-60
2023/05/06 09:01:24;;;;;;;6.65;2.15;;;;;;;;;;5113645;27;20024;-60
2023/05/06 09:03:51;;;;;;;2.67;1.40;;;;;;;;;;5113286;28;20055;-60
2023/05/06 09:06:17;;;;;;;4.90;1.55;;;;;;;;;;5113289;28;20031;-60
2023/05/06 09:08:42;;;;;;;9.65;1.40;;;;;;;;;;5112414;28;20039;-60
2023/05/06 09:11:22;;;;;;;3.72;1.60;;;;;;;;;;5113761;28;20509;-60
2023/05/06 09:13:48;;;;;;;5.15;1.35;;;;;;;;;;5113633;28;20030;-60
2023/05/06 09:16:28;;;;;;;2.60;1.38;;;;;;;;;;5113784;28;20023;-60
2023/05/06 09:18:54;;;;;;;4.90;1.35;;;;;;;;;;5112673;27;20046;-60
2023/05/06 09:21:20;;;;;;;6.30;1.70;;;;;;;;;;5112161;28;20439;-60
2023/05/06 09:23:46;;;;;;;4.65;1.80;;;;;;;;;;5111717;27;20030;-60
2023/05/06 09:26:12;;;;;;;6.88;1.98;;;;;;;;;;5112056;28;20110;-60
2023/05/06 09:28:39;;;;;;;4.82;1.50;;;;;;;;;;5113017;28;20030;-60
2023/05/06 09:31:06;;;;;;;3.25;1.30;;;;;;;;;;5110996;28;20031;-60
2023/05/06 09:33:35;;;;;;;5.25;1.63;;;;;;;;;;5111680;28;20094;-60
2023/05/06 09:36:01;;;;;;;3.85;1.77;;;;;;;;;;5112058;28;20483;-60
2023/05/06 09:38:27;;;;;;;6.13;1.38;;;;;;;;;;5112710;28;20039;-60
2023/05/06 09:40:53;;;;;;;4.38;1.90;;;;;;;;;;5112772;28;20449;-60
2023/05/06 09:43:20;;;;;;;4.82;1.45;;;;;;;;;;5113344;28;20024;-60
2023/05/06 09:45:46;;;;;;;4.78;1.88;;;;;;;;;;5111418;28;20072;-60
2023/05/06 09:48:12;;;;;;;3.42;1.20;;;;;;;;;;5111377;28;20047;-60
2023/05/06 09:50:38;;;;;;;13.55;1.80;;;;;;;;;;5111796;28;20059;-60
2023/05/06 09:53:04;;;;;;;3.70;1.35;;;;;;;;;;5110975;28;20031;-60
2023/05/06 09:55:30;;;;;;;8.93;1.83;;;;;;;;;;5111682;28;20566;-60
2023/05/06 09:57:57;;;;;;;7.30;1.52;;;;;;;;;;5111163;28;20504;-60
2023/05/06 10:00:26;;;;;;;4.97;1.80;;;;;;;;;;5111112;28;20032;-60
2023/05/06 10:02:54;;;;;;;4.15;1.55;;;;;;;;;;5111777;28;20495;-60
2023/05/06 10:05:20;;;;;;;3.67;1.75;;;;;;;;;;5113156;28;20016;-60
2023/05/06 10:07:48;;;;;;;4.10;1.25;;;;;;;;;;5112724;28;20031;-60
2023/05/06 10:10:15;;;;;;;6.15;1.92;;;;;;;;;;5112887;28;20023;-60
2023/05/06 10:12:41;;;;;;;3.78;1.08;;;;;;;;;;5112537;28;20032;-60
2023/05/06 10:15:07;;;;;;;3.97;1.25;;;;;;;;;;5112086;28;20407;-60
2023/05/06 10:17:34;;;;;;;6.00;1.40;;;;;;;;;;5111089;28;20036;-60
2023/05/06 10:20:00;;;;;;;5.80;1.45;;;;;;;;;;5111820;28;20598;-60
2023/05/06 10:22:45;;;;;;;7.80;1.50;;;;;;;;;;5112425;28;20109;-60
2023/05/06 10:25:11;;;;;;;3.22;1.20;;;;;;;;;;5112494;28;20425;-60
2023/05/06 10:27:42;;;;;;;3.40;1.30;;;;;;;;;;5112551;28;20413;-60
2023/05/06 10:30:09;;;;;;;4.40;1.80;;;;;;;;;;5112464;28;20032;-60
2023/05/06 10:32:36;;;;;;;6.00;1.40;;;;;;;;;;5111755;28;20034;-60
2023/05/06 10:35:10;;;;;;;6.10;1.70;;;;;;;;;;5112247;28;20110;-60
2023/05/06 10:37:37;;;;;;;4.53;1.65;;;;;;;;;;5111138;28;20372;-60
2023/05/06 10:40:03;;;;;;;5.35;2.15;;;;;;;;;;5111382;28;20107;-61
2023/05/06 10:42:33;;;;;;;3.25;1.70;;;;;;;;;;5111797;28;20022;-60
2023/05/06 10:45:00;;;;;;;5.13;1.25;;;;;;;;;;5112439;28;20024;-60
2023/05/06 10:47:26;;;;;;;4.55;2.05;;;;;;;;;;5110551;28;20032;-60
2023/05/06 10:50:11;;;;;;;5.28;2.03;;;;;;;;;;5110744;28;20031;-60
2023/05/06 10:52:43;;;;;;;6.78;1.73;;;;;;;;;;5112257;28;20024;-60
2023/05/06 10:55:28;;;;;;;4.05;1.98;;;;;;;;;;5112160;28;20049;-61
2023/05/06 10:58:03;;;;;;;5.18;1.60;;;;;;;;;;5111702;28;20556;-60
2023/05/06 11:00:32;;;;;;;4.85;1.50;;;;;;;;;;5111167;28;20024;-60
2023/05/06 11:03:05;;;;;;;6.18;1.70;;;;;;;;;;5110644;28;20028;-60
2023/05/06 11:05:31;;;;;;;5.85;1.52;;;;;;;;;;5111492;28;20107;-61
2023/05/06 11:08:10;;;;;;;6.88;2.20;;;;;;;;;;5109650;28;20035;-61
2023/05/06 11:10:37;;;;;;;6.88;1.95;;;;;;;;;;5112256;28;20081;-61
2023/05/06 11:13:21;;;;;;;14.07;2.00;;;;;;;;;;5111453;28;20035;-61
2023/05/06 11:15:51;;;;;;;6.30;2.42;;;;;;;;;;5110551;28;20038;-61
2023/05/06 11:18:40;;;;;;;7.72;2.00;;;;;;;;;;5111743;28;20023;-61
2023/05/06 11:21:06;;;;;;;7.75;2.78;;;;;;;;;;5103707;28;20043;-61
2023/05/06 11:23:41;;;;;;;6.63;2.50;;;;;;;;;;5111642;28;20119;-61
2023/05/06 11:26:08;;;;;;;8.88;2.85;;;;;;;;;;5110716;28;20030;-60
2023/05/06 11:28:34;;;;;;;8.55;2.22;;;;;;;;;;5111074;28;20016;-60
2023/05/06 11:31:01;;;;;;;9.15;2.67;;;;;;;;;;5111143;28;20035;-60
2023/05/06 11:33:31;;;;;;;6.80;2.33;;;;;;;;;;5110641;28;20023;-60
2023/05/06 11:35:58;;;;;;;4.60;2.08;;;;;;;;;;5109790;28;20102;-60
2023/05/06 11:38:25;;;;;;;5.90;1.67;;;;;;;;;;5110508;28;20123;-60
2023/05/06 11:40:51;;;;;;;5.95;2.08;;;;;;;;;;5110947;28;20027;-60
2023/05/06 11:43:17;;;;;;;6.85;2.80;;;;;;;;;;5109227;28;20027;-60
2023/05/06 11:45:49;;;;;;;7.68;2.40;;;;;;;;;;5110404;28;20036;-61
2023/05/06 11:48:16;;;;;;;4.38;2.13;;;;;;;;;;5110575;28;20569;-61
2023/05/06 11:50:48;;;;;;;17.25;3.47;;;;;;;;;;5110569;28;20028;-61
2023/05/06 11:53:17;;;;;;;3.70;1.90;;;;;;;;;;5111233;28;20020;-61
2023/05/06 11:55:44;;;;;;;7.00;2.20;;;;;;;;;;5110349;28;20032;-61
2023/05/06 11:58:16;;;;;;;6.85;2.28;;;;;;;;;;5111038;28;20070;-61
2023/05/06 12:00:49;;;;;;;8.27;2.42;;;;;;;;;;5110773;28;20050;-61
2023/05/06 12:03:15;;;;;;;23.27;2.72;;;;;;;;;;5110914;28;20184;-61
2023/05/06 12:05:41;;;;;;;6.13;2.00;;;;;;;;;;5109973;28;20396;-61
2023/05/06 12:08:08;;;;;;;4.05;1.90;;;;;;;;;;5110775;28;20514;-61
2023/05/06 12:10:34;;;;;;;6.57;2.20;;;;;;;;;;5106412;28;20027;-61
2023/05/06 12:13:00;;;;;;;9.00;2.35;;;;;;;;;;5111219;28;20260;-61
2023/05/06 12:15:27;;;;;;;8.73;2.17;;;;;;;;;;5115193;27;20106;-61
2023/05/06 12:17:53;;;;;;;8.55;2.38;;;;;;;;;;5114604;28;20039;-61
2023/05/06 12:20:20;;;;;;;6.55;2.10;;;;;;;;;;5113859;28;20106;-60
2023/05/06 12:22:46;;;;;;;6.10;2.03;;;;;;;;;;5114150;28;20525;-60
2023/05/06 12:25:13;;;;;;;9.55;2.88;;;;;;;;;;5113862;28;20024;-61
2023/05/06 12:27:39;;;;;;;7.15;2.50;;;;;;;;;;5114792;28;20065;-61
2023/05/06 12:30:07;;;;;;;7.15;2.17;;;;;;;;;;5113353;28;20020;-61
2023/05/06 12:32:33;;;;;;;5.32;2.67;;;;;;;;;;5112594;28;20494;-60
2023/05/06 12:35:04;;;;;;;7.63;2.60;;;;;;;;;;5112715;28;20375;-61
2023/05/06 12:37:30;;;;;;;4.95;2.25;;;;;;;;;;5113102;28;20557;-61
2023/05/06 12:39:56;;;;;;;5.65;2.20;;;;;;;;;;5113340;28;20115;-60
2023/05/06 12:42:23;;;;;;;6.47;2.17;;;;;;;;;;5114118;28;20498;-60
2023/05/06 12:44:49;;;;;;;9.68;2.10;;;;;;;;;;5114124;28;20019;-61
2023/05/06 12:47:19;;;;;;;9.93;2.10;;;;;;;;;;5114245;28;20032;-60
2023/05/06 12:49:46;;;;;;;6.40;2.55;;;;;;;;;;5113871;28;20023;-61
2023/05/06 12:52:12;;;;;;;7.10;1.95;;;;;;;;;;5112397;28;20023;-61
2023/05/06 12:54:38;;;;;;;10.27;2.30;;;;;;;;;;5112994;28;20012;-61
2023/05/06 12:57:04;;;;;;;6.80;2.40;;;;;;;;;;5111059;28;20038;-61
2023/05/06 12:59:31;;;;;;;6.22;1.83;;;;;;;;;;5112585;27;20027;-61
2023/05/06 13:01:57;;;;;;;6.55;1.88;;;;;;;;;;5112380;28;20391;-61
2023/05/06 13:04:24;;;;;;;6.05;1.65;;;;;;;;;;5113315;28;20035;-61
2023/05/06 13:06:50;;;;;;;6.38;2.25;;;;;;;;;;5113790;28;20106;-61
2023/05/06 13:09:16;;;;;;;6.35;1.95;;;;;;;;;;5114009;28;20020;-61
2023/05/06 13:11:42;;;;;;;5.45;1.73;;;;;;;;;;5111599;28;20452;-61
2023/05/06 13:14:09;;;;;;;9.57;1.90;;;;;;;;;;5112701;28;20094;-61
2023/05/06 13:16:35;;;;;;;6.43;2.00;;;;;;;;;;5112230;28;20036;-61
2023/05/06 13:19:02;;;;;;;8.82;2.15;;;;;;;;;;5112330;28;20386;-61
2023/05/06 13:21:28;;;;;;;8.30;1.73;;;;;;;;;;5112230;28;20098;-62
2023/05/06 13:23:54;;;;;;;6.63;2.00;;;;;;;;;;5111686;28;20107;-61
2023/05/06 13:26:20;;;;;;;4.15;1.50;;;;;;;;;;5111392;28;20116;-60
2023/05/06 13:28:46;;;;;;;4.88;1.77;;;;;;;;;;5112242;28;20039;-62
2023/05/06 13:31:12;;;;;;;4.45;1.80;;;;;;;;;;5112808;27;20487;-62
2023/05/06 13:33:38;;;;;;;5.35;1.50;;;;;;;;;;5113633;28;20026;-62
2023/05/06 13:36:04;;;;;;;7.75;1.88;;;;;;;;;;5113370;28;20028;-62
2023/05/06 13:38:30;;;;;;;3.83;1.67;;;;;;;;;;5112012;28;20035;-61
2023/05/06 13:40:56;;;;;;;9.25;1.80;;;;;;;;;;5111647;28;20015;-61
2023/05/06 13:43:23;;;;;;;10.05;2.13;;;;;;;;;;5111961;28;20031;-61
2023/05/06 13:45:49;;;;;;;4.57;1.63;;;;;;;;;;5111641;28;20042;-61
2023/05/06 13:48:16;;;;;;;5.35;1.80;;;;;;;;;;5109352;28;20020;-61
2023/05/06 13:50:43;;;;;;;5.22;1.67;;;;;;;;;;5113041;28;20055;-62
2023/05/06 13:53:09;;;;;;;5.07;2.05;;;;;;;;;;5113557;28;20099;-61
2023/05/06 13:55:35;;;;;;;3.65;1.73;;;;;;;;;;5113593;28;20055;-62
2023/05/06 13:58:02;;;;;;;4.43;1.55;;;;;;;;;;5110913;28;20035;-62
2023/05/06 14:00:28;;;;;;;5.07;1.80;;;;;;;;;;5111387;28;20073;-62
2023/05/06 14:02:54;;;;;;;4.28;1.67;;;;;;;;;;5111372;28;20500;-62
2023/05/06 14:05:20;;;;;;;4.85;1.83;;;;;;;;;;5113000;28;20027;-61
2023/05/06 14:07:46;;;;;;;4.60;1.83;;;;;;;;;;5112479;28;20019;-61
2023/05/06 14:10:13;;;;;;;6.25;1.60;;;;;;;;;;5111230;27;20034;-62
2023/05/06 14:12:39;;;;;;;7.53;2.45;;;;;;;;;;5111376;28;20023;-61
2023/05/06 14:15:09;;;;;;;7.40;2.20;;;;;;;;;;5110984;28;20059;-61
2023/05/06 14:17:35;;;;;;;5.95;1.95;;;;;;;;;;5110825;28;20027;-61
2023/05/06 14:20:03;;;;;;;5.47;2.17;;;;;;;;;;5111618;28;20028;-62
2023/05/06 14:22:29;;;;;;;6.65;1.92;;;;;;;;;;5112113;28;20031;-61
2023/05/06 14:24:55;;;;;;;5.25;1.88;;;;;;;;;;5112240;28;20034;-62
2023/05/06 14:27:22;;;;;;;5.75;2.00;;;;;;;;;;5112382;28;20031;-62
2023/05/06 14:29:48;;;;;;;5.63;1.90;;;;;;;;;;5112078;28;20075;-61
2023/05/06 14:32:14;;;;;;;5.80;2.17;;;;;;;;;;5112359;28;20019;-62
2023/05/06 14:34:40;;;;;;;8.60;2.10;;;;;;;;;;5112041;28;20031;-62
2023/05/06 14:37:06;;;;;;;5.35;1.73;;;;;;;;;;5111573;28;20027;-62
2023/05/06 14:39:32;;;;;;;4.75;1.58;;;;;;;;;;5112225;28;20096;-61
2023/05/06 14:41:58;;;;;;;4.55;1.63;;;;;;;;;;5111961;28;20020;-62